createdAt,value
2019-02-18T00:00:40.121Z,859.68
2019-02-18T00:01:40.197Z,859.66
2019-02-18T00:02:41.100Z,859.65
2019-02-18T00:03:40.081Z,859.64
2019-02-18T00:04:40.096Z,859.67
2019-02-18T00:05:40.046Z,859.67
2019-02-18T00:06:40.102Z,859.64
2019-02-18T00:07:40.044Z,859.68
2019-02-18T00:08:40.037Z,859.67
2019-02-18T00:09:40.559Z,859.66
2019-02-18T00:10:39.997Z,859.62
2019-02-18T00:11:40.043Z,859.64
2019-02-18T00:12:39.994Z,859.68
2019-02-18T00:13:39.972Z,859.57
2019-02-18T00:14:39.964Z,859.57
2019-02-18T00:15:39.953Z,859.60
2019-02-18T00:16:40.045Z,859.59
2019-02-18T00:17:39.922Z,859.55
2019-02-18T00:18:40.038Z,859.53
2019-02-18T00:19:39.915Z,859.58
2019-02-18T00:20:39.898Z,859.60
2019-02-18T00:21:39.944Z,859.60
2019-02-18T00:22:39.862Z,859.64
2019-02-18T00:23:39.846Z,859.54
2019-02-18T00:24:39.844Z,859.60
2019-02-18T00:25:39.865Z,859.56
2019-02-18T00:26:39.877Z,859.55
2019-02-18T00:27:39.802Z,859.54
2019-02-18T00:28:39.834Z,859.50
2019-02-18T00:29:39.796Z,859.52
2019-02-18T00:30:39.789Z,859.53
2019-02-18T00:31:39.822Z,859.55
2019-02-18T00:32:39.756Z,859.50
2019-02-18T00:33:39.758Z,859.48
2019-02-18T00:34:39.752Z,859.48
2019-02-18T00:35:39.763Z,859.47
2019-02-18T00:36:39.774Z,859.45
2019-02-18T00:37:40.094Z,859.43
2019-02-18T00:38:39.765Z,859.40
2019-02-18T00:39:39.686Z,859.41
2019-02-18T00:40:39.734Z,859.43
2019-02-18T00:41:39.693Z,859.41
2019-02-18T00:42:39.655Z,859.44
2019-02-18T00:43:39.690Z,859.44
2019-02-18T00:44:39.654Z,859.42
2019-02-18T00:45:39.691Z,859.36
2019-02-18T00:46:39.648Z,859.38
2019-02-18T00:47:39.621Z,859.40
2019-02-18T00:48:39.640Z,859.42
2019-02-18T00:49:39.596Z,859.42
2019-02-18T00:50:39.674Z,859.37
2019-02-18T00:51:39.583Z,859.40
2019-02-18T00:52:39.614Z,859.40
2019-02-18T00:53:39.663Z,859.40
2019-02-18T00:54:39.554Z,859.36
2019-02-18T00:55:40.622Z,859.37
2019-02-18T00:56:39.606Z,859.38
2019-02-18T00:57:39.513Z,859.36
2019-02-18T00:58:39.500Z,859.36
2019-02-18T00:59:39.555Z,859.35
2019-02-18T01:00:39.588Z,859.31
2019-02-18T01:01:39.643Z,859.34
2019-02-18T01:02:39.547Z,859.35
2019-02-18T01:03:39.518Z,859.35
2019-02-18T01:04:40.240Z,859.31
2019-02-18T01:05:39.463Z,859.30
2019-02-18T01:06:39.442Z,859.35
2019-02-18T01:07:39.382Z,859.35
2019-02-18T01:08:39.365Z,859.35
2019-02-18T01:09:39.366Z,859.34
2019-02-18T01:10:39.397Z,859.29
2019-02-18T01:11:39.339Z,859.33
2019-02-18T01:12:39.336Z,859.30
2019-02-18T01:13:39.338Z,859.29
2019-02-18T01:14:39.359Z,859.34
2019-02-18T01:15:39.292Z,859.31
2019-02-18T01:16:39.286Z,859.33
2019-02-18T01:17:39.272Z,859.29
2019-02-18T01:18:39.401Z,859.26
2019-02-18T01:19:39.329Z,859.27
2019-02-18T01:20:39.653Z,859.27
2019-02-18T01:21:39.248Z,859.22
2019-02-18T01:22:39.274Z,859.30
2019-02-18T01:23:39.203Z,859.34
2019-02-18T01:24:39.242Z,859.26
2019-02-18T01:25:39.189Z,859.26
2019-02-18T01:26:39.255Z,859.25
2019-02-18T01:27:39.989Z,859.27
2019-02-18T01:28:39.154Z,859.22
2019-02-18T01:29:39.165Z,859.20
2019-02-18T01:30:39.140Z,859.22
2019-02-18T01:31:39.175Z,859.25
2019-02-18T01:32:39.117Z,859.18
2019-02-18T01:33:39.101Z,859.21
2019-02-18T01:34:39.150Z,859.18
2019-02-18T01:35:39.559Z,859.21
2019-02-18T01:36:39.115Z,859.16
2019-02-18T01:37:45.790Z,859.17
2019-02-18T01:38:40.145Z,859.16
2019-02-18T01:39:39.035Z,859.16
2019-02-18T01:40:39.028Z,859.12
2019-02-18T01:41:39.092Z,859.12
2019-02-18T01:42:39.012Z,859.09
2019-02-18T01:43:38.996Z,859.11
2019-02-18T01:44:38.993Z,859.09
2019-02-18T01:45:39.000Z,859.09
2019-02-18T01:46:39.017Z,859.06
2019-02-18T01:47:38.962Z,859.05
2019-02-18T01:48:39.003Z,859.06
2019-02-18T01:49:39.423Z,859.06
2019-02-18T01:50:38.974Z,859.00
2019-02-18T01:51:38.916Z,859.04
2019-02-18T01:52:38.913Z,859.01
2019-02-18T01:53:38.953Z,859.03
2019-02-18T01:54:39.051Z,859.02
2019-02-18T01:55:38.873Z,859.00
2019-02-18T01:56:38.861Z,859.00
2019-02-18T01:57:38.851Z,858.91
2019-02-18T01:58:38.840Z,858.92
2019-02-18T01:59:38.955Z,858.96
2019-02-18T02:00:38.828Z,858.92
2019-02-18T02:01:38.814Z,858.89
2019-02-18T02:02:38.805Z,858.93
2019-02-18T02:03:38.799Z,858.92
2019-02-18T02:04:38.915Z,858.90
2019-02-18T02:05:38.767Z,858.89
2019-02-18T02:06:38.768Z,858.88
2019-02-18T02:07:38.748Z,858.87
2019-02-18T02:08:38.730Z,858.89
2019-02-18T02:09:38.787Z,858.87
2019-02-18T02:10:38.712Z,858.81
2019-02-18T02:11:38.741Z,858.83
2019-02-18T02:12:38.726Z,858.86
2019-02-18T02:13:38.777Z,858.81
2019-02-18T02:14:38.737Z,858.81
2019-02-18T02:15:38.680Z,858.80
2019-02-18T02:16:38.670Z,858.75
2019-02-18T02:17:38.695Z,858.81
2019-02-18T02:18:38.723Z,858.79
2019-02-18T02:19:38.637Z,858.78
2019-02-18T02:20:38.666Z,858.80
2019-02-18T02:21:38.627Z,858.78
2019-02-18T02:22:38.621Z,858.78
2019-02-18T02:23:38.685Z,858.79
2019-02-18T02:24:38.629Z,858.76
2019-02-18T02:25:38.669Z,858.76
2019-02-18T02:26:38.739Z,858.77
2019-02-18T02:27:38.565Z,858.76
2019-02-18T02:28:38.603Z,858.74
2019-02-18T02:29:39.084Z,858.72
2019-02-18T02:30:40.052Z,858.72
2019-02-18T02:31:38.543Z,858.76
2019-02-18T02:32:38.598Z,858.75
2019-02-18T02:33:38.504Z,858.70
2019-02-18T02:34:38.521Z,858.70
2019-02-18T02:35:38.791Z,858.71
2019-02-18T02:36:40.009Z,858.68
2019-02-18T02:37:38.424Z,858.67
2019-02-18T02:38:38.528Z,858.59
2019-02-18T02:39:38.459Z,858.66
2019-02-18T02:40:38.396Z,858.61
2019-02-18T02:41:38.394Z,858.62
2019-02-18T02:42:38.405Z,858.66
2019-02-18T02:43:38.362Z,858.58
2019-02-18T02:44:38.399Z,858.56
2019-02-18T02:45:38.361Z,858.57
2019-02-18T02:46:38.335Z,858.57
2019-02-18T02:47:38.366Z,858.61
2019-02-18T02:48:38.344Z,858.60
2019-02-18T02:49:38.353Z,858.57
2019-02-18T02:50:38.300Z,858.56
2019-02-18T02:51:38.440Z,858.55
2019-02-18T02:52:38.271Z,858.55
2019-02-18T02:53:38.301Z,858.56
2019-02-18T02:54:38.245Z,858.56
2019-02-18T02:55:38.251Z,858.59
2019-02-18T02:56:38.225Z,858.57
2019-02-18T02:57:38.271Z,858.56
2019-02-18T02:58:38.241Z,858.58
2019-02-18T02:59:38.193Z,858.53
2019-02-18T03:00:38.181Z,858.55
2019-02-18T03:01:38.191Z,858.52
2019-02-18T03:02:38.224Z,858.51
2019-02-18T03:03:38.153Z,858.50
2019-02-18T03:04:38.150Z,858.53
2019-02-18T03:05:38.133Z,858.55
2019-02-18T03:06:38.131Z,858.48
2019-02-18T03:07:38.180Z,858.49
2019-02-18T03:08:38.521Z,858.50
2019-02-18T03:09:38.088Z,858.46
2019-02-18T03:10:38.075Z,858.44
2019-02-18T03:11:38.057Z,858.44
2019-02-18T03:12:38.076Z,858.40
2019-02-18T03:13:38.111Z,858.40
2019-02-18T03:14:38.039Z,858.40
2019-02-18T03:15:38.026Z,858.39
2019-02-18T03:16:38.015Z,858.39
2019-02-18T03:17:38.089Z,858.38
2019-02-18T03:18:38.059Z,858.34
2019-02-18T03:19:37.978Z,858.35
2019-02-18T03:20:37.982Z,858.30
2019-02-18T03:21:38.038Z,858.28
2019-02-18T03:22:37.958Z,858.33
2019-02-18T03:23:37.986Z,858.33
2019-02-18T03:24:37.987Z,858.29
2019-02-18T03:25:37.984Z,858.29
2019-02-18T03:26:37.900Z,858.34
2019-02-18T03:27:37.926Z,858.28
2019-02-18T03:28:37.940Z,858.26
2019-02-18T03:29:37.963Z,858.29
2019-02-18T03:30:37.871Z,858.27
2019-02-18T03:31:37.920Z,858.26
2019-02-18T03:32:37.850Z,858.27
2019-02-18T03:33:37.879Z,858.28
2019-02-18T03:34:38.010Z,858.24
2019-02-18T03:35:37.813Z,858.24
2019-02-18T03:36:37.815Z,858.21
2019-02-18T03:37:37.785Z,858.22
2019-02-18T03:38:37.784Z,858.23
2019-02-18T03:39:37.813Z,858.24
2019-02-18T03:40:37.761Z,858.19
2019-02-18T03:41:40.673Z,858.17
2019-02-18T03:42:37.740Z,858.17
2019-02-18T03:43:37.730Z,858.20
2019-02-18T03:44:37.770Z,858.22
2019-02-18T03:45:37.703Z,858.18
2019-02-18T03:46:37.700Z,858.14
2019-02-18T03:47:37.685Z,858.17
2019-02-18T03:48:37.686Z,858.15
2019-02-18T03:49:37.723Z,858.24
2019-02-18T03:50:37.695Z,858.22
2019-02-18T03:51:37.682Z,858.22
2019-02-18T03:52:37.700Z,858.14
2019-02-18T03:53:37.673Z,858.21
2019-02-18T03:54:37.615Z,858.19
2019-02-18T03:55:37.596Z,858.17
2019-02-18T03:56:37.642Z,858.17
2019-02-18T03:57:37.586Z,858.20
2019-02-18T03:58:37.646Z,858.14
2019-02-18T03:59:37.554Z,858.14
2019-02-18T04:00:37.540Z,858.19
2019-02-18T04:01:37.544Z,858.21
2019-02-18T04:02:37.641Z,858.19
2019-02-18T04:03:37.516Z,858.16
2019-02-18T04:04:37.551Z,858.15
2019-02-18T04:05:37.505Z,858.18
2019-02-18T04:06:37.488Z,858.15
2019-02-18T04:07:37.525Z,858.15
2019-02-18T04:08:43.003Z,858.19
2019-02-18T04:09:38.489Z,858.20
2019-02-18T04:10:37.459Z,858.19
2019-02-18T04:11:37.437Z,858.19
2019-02-18T04:12:37.523Z,858.15
2019-02-18T04:13:37.413Z,858.15
2019-02-18T04:14:37.393Z,858.16
2019-02-18T04:15:37.450Z,858.14
2019-02-18T04:16:37.392Z,858.13
2019-02-18T04:17:37.413Z,858.11
2019-02-18T04:18:37.510Z,858.13
2019-02-18T04:19:37.339Z,858.11
2019-02-18T04:20:37.334Z,858.17
2019-02-18T04:21:37.328Z,858.13
2019-02-18T04:22:37.318Z,858.17
2019-02-18T04:23:37.479Z,858.17
2019-02-18T04:24:37.500Z,858.18
2019-02-18T04:25:37.279Z,858.14
2019-02-18T04:26:37.309Z,858.13
2019-02-18T04:27:37.259Z,858.11
2019-02-18T04:28:37.294Z,858.13
2019-02-18T04:29:37.496Z,858.15
2019-02-18T04:30:37.273Z,858.11
2019-02-18T04:31:37.242Z,858.14
2019-02-18T04:32:37.203Z,858.12
2019-02-18T04:33:37.262Z,858.14
2019-02-18T04:34:37.279Z,858.12
2019-02-18T04:35:37.175Z,858.14
2019-02-18T04:36:37.162Z,858.15
2019-02-18T04:37:37.169Z,858.15
2019-02-18T04:38:37.198Z,858.15
2019-02-18T04:39:37.131Z,858.12
2019-02-18T04:40:37.266Z,858.11
2019-02-18T04:41:37.111Z,858.08
2019-02-18T04:42:37.103Z,858.11
2019-02-18T04:43:37.080Z,858.09
2019-02-18T04:44:37.213Z,858.14
2019-02-18T04:45:37.125Z,858.12
2019-02-18T04:46:37.053Z,858.13
2019-02-18T04:47:37.063Z,858.04
2019-02-18T04:48:37.060Z,858.14
2019-02-18T04:49:37.016Z,858.08
2019-02-18T04:50:37.141Z,858.07
2019-02-18T04:51:37.010Z,858.06
2019-02-18T04:52:37.049Z,858.07
2019-02-18T04:53:36.996Z,858.10
2019-02-18T04:54:36.983Z,858.06
2019-02-18T04:55:37.949Z,858.07
2019-02-18T04:56:36.973Z,858.02
2019-02-18T04:57:37.043Z,858.04
2019-02-18T04:58:36.928Z,858.00
2019-02-18T04:59:37.878Z,858.02
2019-02-18T05:00:36.958Z,857.99
2019-02-18T05:01:37.089Z,858.01
2019-02-18T05:02:36.944Z,857.97
2019-02-18T05:03:36.875Z,857.97
2019-02-18T05:04:36.943Z,857.99
2019-02-18T05:05:36.951Z,857.95
2019-02-18T05:06:36.902Z,857.93
2019-02-18T05:07:36.861Z,857.93
2019-02-18T05:08:36.923Z,857.91
2019-02-18T05:09:36.922Z,857.92
2019-02-18T05:10:36.890Z,857.96
2019-02-18T05:11:36.888Z,857.94
2019-02-18T05:12:36.855Z,857.93
2019-02-18T05:13:36.779Z,857.99
2019-02-18T05:14:36.833Z,857.94
2019-02-18T05:15:36.759Z,857.93
2019-02-18T05:16:36.790Z,857.92
2019-02-18T05:17:36.970Z,857.91
2019-02-18T05:18:36.747Z,857.94
2019-02-18T05:19:36.781Z,857.94
2019-02-18T05:20:36.697Z,857.93
2019-02-18T05:21:36.689Z,857.94
2019-02-18T05:22:36.723Z,857.94
2019-02-18T05:23:36.676Z,857.96
2019-02-18T05:24:36.672Z,857.95
2019-02-18T05:25:36.877Z,857.92
2019-02-18T05:26:36.688Z,857.95
2019-02-18T05:27:36.684Z,857.95
2019-02-18T05:28:36.604Z,857.97
2019-02-18T05:29:36.676Z,857.90
2019-02-18T05:30:36.769Z,857.91
2019-02-18T05:31:36.655Z,857.89
2019-02-18T05:32:36.782Z,857.99
2019-02-18T05:33:36.751Z,857.92
2019-02-18T05:34:36.651Z,857.93
2019-02-18T05:35:36.581Z,857.93
2019-02-18T05:36:38.438Z,857.93
2019-02-18T05:37:36.589Z,857.95
2019-02-18T05:38:36.964Z,857.94
2019-02-18T05:39:36.532Z,857.94
2019-02-18T05:40:36.486Z,857.94
2019-02-18T05:41:36.476Z,857.88
2019-02-18T05:42:36.633Z,857.89
2019-02-18T05:43:36.562Z,857.86
2019-02-18T05:44:36.481Z,857.86
2019-02-18T05:45:43.421Z,857.83
2019-02-18T05:46:36.466Z,857.88
2019-02-18T05:47:36.499Z,857.87
2019-02-18T05:48:37.216Z,857.89
2019-02-18T05:51:04.298Z,857.90
2019-02-18T05:52:05.958Z,857.84
2019-02-18T05:53:04.890Z,857.82
2019-02-18T05:55:39.622Z,857.83
2019-02-18T05:56:37.045Z,857.86
2019-02-18T05:57:35.930Z,857.88
2019-02-18T05:58:40.023Z,857.90
2019-02-18T05:59:35.185Z,857.86
2019-02-18T06:00:35.119Z,857.82
2019-02-18T06:01:35.049Z,857.85
2019-02-18T06:02:35.027Z,857.84
2019-02-18T06:03:35.015Z,857.86
2019-02-18T06:04:35.008Z,857.86
2019-02-18T06:05:35.045Z,857.86
2019-02-18T06:06:34.996Z,857.84
2019-02-18T06:07:35.005Z,857.84
2019-02-18T06:08:34.994Z,857.86
2019-02-18T06:09:34.968Z,857.84
2019-02-18T06:10:34.955Z,857.88
2019-02-18T06:11:34.975Z,857.89
2019-02-18T06:12:34.933Z,857.86
2019-02-18T06:13:34.930Z,857.85
2019-02-18T06:14:34.900Z,857.86
2019-02-18T06:15:34.892Z,857.86
2019-02-18T06:16:34.893Z,857.83
2019-02-18T06:17:34.935Z,857.87
2019-02-18T06:18:34.867Z,857.85
2019-02-18T06:19:35.419Z,857.89
2019-02-18T06:20:34.845Z,857.89
2019-02-18T06:21:34.858Z,857.90
2019-02-18T06:22:34.818Z,857.91
2019-02-18T06:23:34.849Z,857.93
2019-02-18T06:24:34.968Z,857.94
2019-02-18T06:25:35.006Z,857.88
2019-02-18T06:26:34.784Z,857.89
2019-02-18T06:27:34.765Z,857.87
2019-02-18T06:28:34.760Z,857.97
2019-02-18T06:29:34.761Z,857.95
2019-02-18T06:30:34.818Z,857.96
2019-02-18T06:31:34.724Z,857.89
2019-02-18T06:32:34.736Z,857.93
2019-02-18T06:33:34.704Z,857.95
2019-02-18T06:34:34.692Z,857.96
2019-02-18T06:35:34.683Z,857.93
2019-02-18T06:36:34.719Z,857.93
2019-02-18T06:37:37.622Z,857.93
2019-02-18T06:38:35.473Z,857.93
2019-02-18T06:39:41.475Z,857.89
2019-02-18T06:40:34.671Z,857.86
2019-02-18T06:41:34.878Z,857.88
2019-02-18T06:42:35.496Z,857.90
2019-02-18T06:43:35.730Z,857.91
2019-02-18T06:44:36.675Z,857.91
2019-02-18T06:45:34.601Z,857.91
2019-02-18T06:46:34.629Z,857.95
2019-02-18T06:47:34.562Z,857.94
2019-02-18T06:48:34.549Z,857.90
2019-02-18T06:49:34.636Z,857.90
2019-02-18T06:50:34.535Z,857.92
2019-02-18T06:51:34.532Z,857.92
2019-02-18T06:52:35.430Z,857.90
2019-02-18T06:53:34.505Z,857.89
2019-02-18T06:54:34.511Z,857.92
2019-02-18T06:55:34.500Z,857.93
2019-02-18T06:56:34.473Z,857.93
2019-02-18T06:57:34.451Z,857.89
2019-02-18T06:58:34.499Z,857.90
2019-02-18T06:59:34.426Z,857.93
2019-02-18T07:00:34.466Z,857.92
2019-02-18T07:01:34.430Z,857.88
2019-02-18T07:02:34.413Z,857.91
2019-02-18T07:03:34.397Z,857.88
2019-02-18T07:04:34.442Z,857.84
2019-02-18T07:05:34.381Z,857.90
2019-02-18T07:06:34.401Z,857.92
2019-02-18T07:07:34.345Z,857.93
2019-02-18T07:08:34.347Z,857.95
2019-02-18T07:09:34.366Z,857.93
2019-02-18T07:10:34.322Z,857.93
2019-02-18T07:11:34.306Z,857.93
2019-02-18T07:12:34.301Z,857.94
2019-02-18T07:13:34.294Z,857.96
2019-02-18T07:14:34.316Z,857.93
2019-02-18T07:15:34.295Z,857.94
2019-02-18T07:16:34.283Z,857.90
2019-02-18T07:17:34.241Z,857.92
2019-02-18T07:18:34.241Z,857.93
2019-02-18T07:19:34.221Z,857.94
2019-02-18T07:20:34.263Z,857.95
2019-02-18T07:21:34.206Z,857.96
2019-02-18T07:22:34.190Z,857.99
2019-02-18T07:23:34.186Z,857.97
2019-02-18T07:24:34.160Z,857.99
2019-02-18T07:25:34.149Z,857.99
2019-02-18T07:26:34.183Z,858.00
2019-02-18T07:27:34.134Z,858.00
2019-02-18T07:28:34.155Z,857.99
2019-02-18T07:29:34.295Z,857.96
2019-02-18T07:30:34.107Z,857.96
2019-02-18T07:31:34.127Z,857.96
2019-02-18T07:32:34.115Z,857.96
2019-02-18T07:33:34.072Z,857.97
2019-02-18T07:34:34.064Z,857.94
2019-02-18T07:35:34.061Z,857.92
2019-02-18T07:36:35.056Z,857.96
2019-02-18T07:37:34.024Z,857.98
2019-02-18T07:38:34.057Z,858.00
2019-02-18T07:39:34.013Z,857.93
2019-02-18T07:40:34.001Z,857.93
2019-02-18T07:41:34.051Z,857.91
2019-02-18T07:42:33.968Z,857.93
2019-02-18T07:43:33.969Z,857.89
2019-02-18T07:44:33.995Z,857.91
2019-02-18T07:45:33.973Z,857.98
2019-02-18T07:46:33.970Z,857.95
2019-02-18T07:47:33.976Z,857.93
2019-02-18T07:48:33.911Z,857.94
2019-02-18T07:49:33.918Z,857.87
2019-02-18T07:50:33.904Z,857.81
2019-02-18T07:51:33.922Z,857.77
2019-02-18T07:52:33.872Z,857.77
2019-02-18T07:53:33.909Z,857.76
2019-02-18T07:54:33.850Z,857.76
2019-02-18T07:55:33.827Z,857.75
2019-02-18T07:56:33.821Z,857.75
2019-02-18T07:57:33.861Z,857.73
2019-02-18T07:58:33.810Z,857.76
2019-02-18T07:59:33.845Z,857.71
2019-02-18T08:00:33.796Z,857.72
2019-02-18T08:01:33.952Z,857.72
2019-02-18T08:02:33.751Z,857.70
2019-02-18T08:03:33.741Z,857.75
2019-02-18T08:04:33.733Z,857.69
2019-02-18T08:05:33.882Z,857.67
2019-02-18T08:06:34.385Z,857.69
2019-02-18T08:07:33.698Z,857.72
2019-02-18T08:08:33.703Z,857.69
2019-02-18T08:09:33.724Z,857.71
2019-02-18T08:10:33.671Z,857.75
2019-02-18T08:11:33.668Z,857.78
2019-02-18T08:12:33.642Z,857.83
2019-02-18T08:13:33.634Z,857.75
2019-02-18T08:14:33.624Z,857.76
2019-02-18T08:15:33.659Z,857.71
2019-02-18T08:16:33.619Z,857.75
2019-02-18T08:17:33.592Z,857.80
2019-02-18T08:18:33.586Z,857.72
2019-02-18T08:19:33.570Z,857.67
2019-02-18T08:20:33.560Z,857.69
2019-02-18T08:21:33.592Z,857.71
2019-02-18T08:22:33.537Z,857.74
2019-02-18T08:23:33.545Z,857.71
2019-02-18T08:24:33.519Z,857.74
2019-02-18T08:25:33.520Z,857.72
2019-02-18T08:26:33.497Z,857.67
2019-02-18T08:27:33.519Z,857.74
2019-02-18T08:28:33.476Z,857.71
2019-02-18T08:29:33.464Z,857.68
2019-02-18T08:30:33.453Z,857.68
2019-02-18T08:31:33.439Z,857.68
2019-02-18T08:32:33.453Z,857.69
2019-02-18T08:33:33.458Z,857.70
2019-02-18T08:34:33.407Z,857.65
2019-02-18T08:35:33.397Z,857.64
2019-02-18T08:36:33.386Z,857.65
2019-02-18T08:37:33.379Z,857.59
2019-02-18T08:38:33.377Z,857.63
2019-02-18T08:39:33.395Z,857.64
2019-02-18T08:40:33.434Z,857.63
2019-02-18T08:41:33.335Z,857.58
2019-02-18T08:42:34.229Z,857.66
2019-02-18T08:43:33.321Z,857.65
2019-02-18T08:44:33.341Z,857.70
2019-02-18T08:45:33.302Z,857.69
2019-02-18T08:46:33.406Z,857.64
2019-02-18T08:47:33.289Z,857.60
2019-02-18T08:48:33.280Z,857.61
2019-02-18T08:49:33.303Z,857.60
2019-02-18T08:50:33.244Z,857.58
2019-02-18T08:51:33.233Z,857.61
2019-02-18T08:52:33.267Z,857.61
2019-02-18T08:53:33.208Z,857.58
2019-02-18T08:54:33.191Z,857.59
2019-02-18T08:55:33.181Z,857.62
2019-02-18T08:56:33.192Z,857.57
2019-02-18T08:57:33.160Z,857.58
2019-02-18T08:58:33.192Z,857.56
2019-02-18T08:59:33.138Z,857.56
2019-02-18T09:00:33.135Z,857.57
2019-02-18T09:01:33.121Z,857.60
2019-02-18T09:02:33.108Z,857.51
2019-02-18T09:03:33.173Z,857.54
2019-02-18T09:04:33.091Z,857.52
2019-02-18T09:05:33.086Z,857.52
2019-02-18T09:06:33.067Z,857.49
2019-02-18T09:07:33.897Z,857.56
2019-02-18T09:08:33.046Z,857.50
2019-02-18T09:09:33.070Z,857.57
2019-02-18T09:10:34.107Z,857.54
2019-02-18T09:11:33.013Z,857.56
2019-02-18T09:12:32.996Z,857.57
2019-02-18T09:13:32.992Z,857.62
2019-02-18T09:14:32.992Z,857.60
2019-02-18T09:15:32.969Z,857.62
2019-02-18T09:16:33.007Z,857.55
2019-02-18T09:17:33.324Z,857.54
2019-02-18T09:18:32.927Z,857.55
2019-02-18T09:19:35.869Z,857.49
2019-02-18T09:20:32.921Z,857.48
2019-02-18T09:21:32.955Z,857.46
2019-02-18T09:22:32.924Z,857.51
2019-02-18T09:23:32.876Z,857.38
2019-02-18T09:24:32.884Z,857.46
2019-02-18T09:25:32.884Z,857.42
2019-02-18T09:26:32.849Z,857.41
2019-02-18T09:27:32.836Z,857.39
2019-02-18T09:28:32.971Z,857.41
2019-02-18T09:29:32.815Z,857.38
2019-02-18T09:30:32.809Z,857.42
2019-02-18T09:31:32.820Z,857.44
2019-02-18T09:32:32.784Z,857.43
2019-02-18T09:33:32.786Z,857.41
2019-02-18T09:34:32.799Z,857.41
2019-02-18T09:35:32.746Z,857.42
2019-02-18T09:36:32.786Z,857.43
2019-02-18T09:37:32.728Z,857.37
2019-02-18T09:38:32.713Z,857.40
2019-02-18T09:39:32.737Z,857.39
2019-02-18T09:40:32.739Z,857.40
2019-02-18T09:41:32.678Z,857.35
2019-02-18T09:42:32.720Z,857.37
2019-02-18T09:43:32.662Z,857.39
2019-02-18T09:44:32.653Z,857.41
2019-02-18T09:45:32.645Z,857.41
2019-02-18T09:46:32.666Z,857.33
2019-02-18T09:47:32.617Z,857.34
2019-02-18T09:48:32.637Z,857.30
2019-02-18T09:49:32.610Z,857.31
2019-02-18T09:50:32.596Z,857.30
2019-02-18T09:51:32.577Z,857.27
2019-02-18T09:52:32.603Z,857.30
2019-02-18T09:53:32.598Z,857.31
2019-02-18T09:54:32.544Z,857.33
2019-02-18T09:55:32.556Z,857.26
2019-02-18T09:56:32.519Z,857.24
2019-02-18T09:57:32.572Z,857.27
2019-02-18T09:58:32.535Z,857.30
2019-02-18T09:59:32.480Z,857.31
2019-02-18T10:00:32.482Z,857.28
2019-02-18T10:01:32.478Z,857.29
2019-02-18T10:02:32.461Z,857.30
2019-02-18T10:03:32.508Z,857.27
2019-02-18T10:04:32.529Z,857.30
2019-02-18T10:05:32.570Z,857.30
2019-02-18T10:06:32.437Z,857.29
2019-02-18T10:07:32.713Z,857.26
2019-02-18T10:08:32.446Z,857.28
2019-02-18T10:09:32.462Z,857.26
2019-02-18T10:10:32.407Z,857.23
2019-02-18T10:11:32.359Z,857.24
2019-02-18T10:12:32.354Z,857.23
2019-02-18T10:13:32.350Z,857.20
2019-02-18T10:14:32.325Z,857.23
2019-02-18T10:15:32.894Z,857.21
2019-02-18T10:16:32.311Z,857.23
2019-02-18T10:17:32.369Z,857.25
2019-02-18T10:18:32.296Z,857.19
2019-02-18T10:19:32.275Z,857.15
2019-02-18T10:20:32.260Z,857.16
2019-02-18T10:21:32.299Z,857.17
2019-02-18T10:22:32.296Z,857.15
2019-02-18T10:23:32.262Z,857.19
2019-02-18T10:24:32.275Z,857.11
2019-02-18T10:25:32.230Z,857.15
2019-02-18T10:26:32.241Z,857.17
2019-02-18T10:27:32.187Z,857.20
2019-02-18T10:28:32.171Z,857.17
2019-02-18T10:29:32.193Z,857.14
2019-02-18T10:30:32.162Z,857.12
2019-02-18T10:31:32.196Z,857.11
2019-02-18T10:32:32.171Z,857.13
2019-02-18T10:33:32.133Z,857.07
2019-02-18T10:34:32.135Z,857.11
2019-02-18T10:35:32.853Z,857.09
2019-02-18T10:36:32.085Z,857.13
2019-02-18T10:37:32.394Z,857.13
2019-02-18T10:38:32.153Z,857.12
2019-02-18T10:39:32.063Z,857.11
2019-02-18T10:40:32.062Z,857.11
2019-02-18T10:41:32.074Z,857.10
2019-02-18T10:42:32.037Z,857.12
2019-02-18T10:43:32.811Z,857.10
2019-02-18T10:44:32.018Z,857.07
2019-02-18T10:45:31.994Z,857.12
2019-02-18T10:46:31.989Z,857.06
2019-02-18T10:47:32.027Z,857.07
2019-02-18T10:48:31.976Z,857.03
2019-02-18T10:49:32.407Z,857.02
2019-02-18T10:50:31.966Z,857.04
2019-02-18T10:51:31.969Z,856.96
2019-02-18T10:52:31.922Z,856.99
2019-02-18T10:53:32.034Z,856.94
2019-02-18T10:54:31.937Z,856.97
2019-02-18T10:55:32.029Z,856.96
2019-02-18T10:56:31.894Z,856.93
2019-02-18T10:57:31.867Z,856.94
2019-02-18T10:58:31.891Z,856.95
2019-02-18T10:59:31.842Z,856.88
2019-02-18T11:00:31.871Z,856.95
2019-02-18T11:01:31.833Z,856.90
2019-02-18T11:02:31.837Z,856.87
2019-02-18T11:03:32.031Z,856.81
2019-02-18T11:04:31.820Z,856.83
2019-02-18T11:05:31.839Z,856.83
2019-02-18T11:06:31.806Z,856.78
2019-02-18T11:07:31.752Z,856.86
2019-02-18T11:08:31.796Z,856.84
2019-02-18T11:09:32.344Z,856.82
2019-02-18T11:10:31.976Z,856.82
2019-02-18T11:11:31.752Z,856.81
2019-02-18T11:12:31.704Z,856.78
2019-02-18T11:13:31.681Z,856.76
2019-02-18T11:14:31.703Z,856.80
2019-02-18T11:15:31.679Z,856.75
2019-02-18T11:16:31.689Z,856.78
2019-02-18T11:17:38.630Z,856.77
2019-02-18T11:18:32.674Z,856.75
2019-02-18T11:19:31.621Z,856.74
2019-02-18T11:20:32.374Z,856.78
2019-02-18T11:21:31.661Z,856.73
2019-02-18T11:22:31.604Z,856.75
2019-02-18T11:23:31.573Z,856.73
2019-02-18T11:24:31.570Z,856.68
2019-02-18T11:25:32.343Z,856.67
2019-02-18T11:26:31.542Z,856.65
2019-02-18T11:27:31.574Z,856.64
2019-02-18T11:28:31.537Z,856.68
2019-02-18T11:29:31.532Z,856.57
2019-02-18T11:30:31.497Z,856.63
2019-02-18T11:31:31.596Z,856.61
2019-02-18T11:32:31.488Z,856.62
2019-02-18T11:33:31.478Z,856.58
2019-02-18T11:34:31.458Z,856.57
2019-02-18T11:35:31.456Z,856.55
2019-02-18T11:36:31.433Z,856.54
2019-02-18T11:37:31.463Z,856.54
2019-02-18T11:38:31.415Z,856.52
2019-02-18T11:39:31.437Z,856.49
2019-02-18T11:40:32.208Z,856.48
2019-02-18T11:41:31.393Z,856.49
2019-02-18T11:42:31.399Z,856.48
2019-02-18T11:43:31.425Z,856.42
2019-02-18T11:44:31.367Z,856.38
2019-02-18T11:45:31.367Z,856.36
2019-02-18T11:46:31.626Z,856.39
2019-02-18T11:47:31.347Z,856.39
2019-02-18T11:48:31.375Z,856.31
2019-02-18T11:49:31.309Z,856.35
2019-02-18T11:50:31.304Z,856.30
2019-02-18T11:51:31.304Z,856.28
2019-02-18T11:52:31.279Z,856.28
2019-02-18T11:53:31.253Z,856.21
2019-02-18T11:54:31.307Z,856.27
2019-02-18T11:55:31.233Z,856.26
2019-02-18T11:56:31.222Z,856.24
2019-02-18T11:57:31.732Z,856.25
2019-02-18T11:58:31.247Z,856.24
2019-02-18T11:59:31.212Z,856.22
2019-02-18T12:00:31.228Z,856.19
2019-02-18T12:01:31.169Z,856.17
2019-02-18T12:02:31.164Z,856.22
2019-02-18T12:03:31.145Z,856.15
2019-02-18T12:04:31.139Z,856.16
2019-02-18T12:05:31.133Z,856.14
2019-02-18T12:06:31.157Z,856.11
2019-02-18T12:07:31.100Z,856.13
2019-02-18T12:08:31.100Z,856.11
2019-02-18T12:09:31.116Z,856.10
2019-02-18T12:10:31.101Z,856.11
2019-02-18T12:11:37.798Z,856.05
2019-02-18T12:12:32.101Z,856.03
2019-02-18T12:13:31.034Z,856.10
2019-02-18T12:14:31.030Z,856.04
2019-02-18T12:15:31.016Z,856.05
2019-02-18T12:16:31.040Z,856.03
2019-02-18T12:17:31.027Z,856.02
2019-02-18T12:18:30.986Z,856.02
2019-02-18T12:19:30.970Z,856.00
2019-02-18T12:20:30.959Z,855.96
2019-02-18T12:21:30.953Z,855.99
2019-02-18T12:22:30.975Z,855.97
2019-02-18T12:23:30.969Z,855.94
2019-02-18T12:24:30.918Z,855.92
2019-02-18T12:25:31.096Z,855.93
2019-02-18T12:26:30.891Z,855.90
2019-02-18T12:27:32.188Z,855.90
2019-02-18T12:28:30.883Z,855.88
2019-02-18T12:29:30.909Z,855.90
2019-02-18T12:30:32.445Z,855.86
2019-02-18T12:31:30.843Z,855.93